Terminal Aerodrome Forecast
Issued by NWS Wilmington, OH

Current Version | Previous Version | Graphics & Text | Print | Product List | Glossary On
Versions: 1 2 3 4 5 6 7 8 9 10 11 12 13 14 15 16 17 18 19 20 21 22
000
FTUS41 KILN 032300
TAFCVG
TAF
KCVG 032327Z 0400/0506 18005KT P6SM FEW150
     FM041500 21010G18KT P6SM SCT050 BKN150
     FM042200 21007KT P6SM SCT090 BKN250=

USA.gov is the U.S. government's official web portal to all federal, state and local government web resources and services.